Time;durP1;ratioP1;P1;durP2;ratioP2;P2;SDS_P1;SDS_P2;PMS_P1;PMS_P2;Temp;Humidity;BMP_temperature;BMP_pressure;BME280_temperature;BME280_humidity;BME280_pressure;Samples;Min_cycle;Max_cycle;Signal;HPM_P1;HPM_P2
2023/07/04 00:01:48;;;;;;;;;;;;;;;20.77;41.56;100148.22;4832754;29;7198;-75
2023/07/04 00:04:19;;;;;;;;;;;;;;;20.72;41.81;100142.09;4863821;29;6785;-75
2023/07/04 00:06:47;;;;;;;;;;;;;;;20.66;41.88;100146.41;4845168;29;7213;-75
2023/07/04 00:09:14;;;;;;;;;;;;;;;20.59;41.71;100146.41;4823686;29;6994;-75
2023/07/04 00:11:39;;;;;;;;;;;;;;;20.51;42.38;100141.19;4841746;29;6780;-76
2023/07/04 00:14:05;;;;;;;;;;;;;;;20.42;42.43;100134.22;4859089;29;7757;-75
2023/07/04 00:16:31;;;;;;;;;;;;;;;20.35;42.47;100146.34;4843514;29;6772;-75
2023/07/04 00:18:57;;;;;;;;;;;;;;;20.29;43.27;100150.66;4843768;29;6784;-76
2023/07/04 00:21:24;;;;;;;;;;;;;;;20.22;43.45;100153.22;4840834;29;6756;-75
2023/07/04 00:23:53;;;;;;;;;;;;;;;20.16;43.29;100147.13;4855262;29;6785;-76
2023/07/04 00:26:22;;;;;;;;;;;;;;;20.08;43.81;100150.56;4841573;29;7963;-75
2023/07/04 00:28:49;;;;;;;;;;;;;;;20.03;43.81;100156.59;4858186;29;7174;-75
2023/07/04 00:31:20;;;;;;;;;;;;;;;19.96;43.94;100158.31;4843996;29;6801;-75
2023/07/04 00:33:47;;;;;;;;;;;;;;;19.90;43.51;100159.09;4830831;29;7437;-75
2023/07/04 00:36:16;;;;;;;;;;;;;;;19.85;44.25;100164.28;4825437;29;6841;-76
2023/07/04 00:38:42;;;;;;;;;;;;;;;19.80;44.32;100155.59;4819675;29;7296;-75
2023/07/04 00:41:16;;;;;;;;;;;;;;;19.77;44.06;100163.38;4836747;29;7126;-75
2023/07/04 00:43:59;;;;;;;;;;;;;;;19.73;43.98;100159.00;4828970;29;6985;-75
2023/07/04 00:46:38;;;;;;;;;;;;;;;19.68;44.50;100160.69;4841757;29;6813;-76
2023/07/04 00:49:30;;;;;;;;;;;;;;;19.65;44.84;100163.28;4844442;29;6961;-76
2023/07/04 00:52:04;;;;;;;;;;;;;;;19.60;44.93;100157.16;4841684;29;6825;-76
2023/07/04 00:54:40;;;;;;;;;;;;;;;19.60;44.90;100162.38;4836050;29;7223;-75
2023/07/04 00:57:07;;;;;;;;;;;;;;;19.55;45.49;100162.34;4846710;29;6809;-75
2023/07/04 00:59:43;;;;;;;;;;;;;;;19.52;45.61;100163.22;4866750;29;6973;-76
2023/07/04 01:02:15;;;;;;;;;;;;;;;19.49;45.37;100162.31;4832628;29;7230;-76
2023/07/04 01:04:43;;;;;;;;;;;;;;;19.47;45.19;100162.28;4867565;29;7603;-75
2023/07/04 01:07:45;;;;;;;;;;;;;;;19.45;45.65;100158.81;4852337;29;7010;-75
2023/07/04 01:10:30;;;;;;;;;;;;;;;19.41;45.82;100162.22;4844354;29;6867;-76
2023/07/04 01:12:56;;;;;;;;;;;;;;;19.39;46.01;100156.16;4830501;29;7008;-75
2023/07/04 01:15:23;;;;;;;;;;;;;;;19.38;46.08;100162.22;4845477;29;6792;-75
2023/07/04 01:17:53;;;;;;;;;;;;;;;19.35;46.08;100157.00;4844249;29;6808;-75
2023/07/04 01:20:19;;;;;;;;;;;;;;;19.30;46.18;100162.16;4828693;29;7242;-75
2023/07/04 01:23:07;;;;;;;;;;;;;;;19.27;46.25;100157.81;4845508;29;6773;-75
2023/07/04 01:25:59;;;;;;;;;;;;;;;19.21;46.66;100164.69;4843564;29;6833;-75
2023/07/04 01:28:29;;;;;;;;;;;;;;;19.17;46.64;100166.38;4859604;29;6980;-76
2023/07/04 01:30:57;;;;;;;;;;;;;;;19.13;47.16;100162.88;4845328;29;7007;-75
2023/07/04 01:33:25;;;;;;;;;;;;;;;19.10;47.10;100162.88;4847031;29;6816;-74
2023/07/04 01:35:51;;;;;;;;;;;;;;;19.08;46.88;100163.69;4825080;29;6986;-74
2023/07/04 01:38:16;;;;;;;;;;;;;;;19.04;47.24;100168.00;4844162;29;7874;-73
2023/07/04 01:40:42;;;;;;;;;;;;;;;19.01;47.25;100166.22;4841535;29;7275;-73
2023/07/04 01:43:07;;;;;;;;;;;;;;;19.00;46.94;100174.00;4839937;29;6855;-73
2023/07/04 01:45:33;;;;;;;;;;;;;;;18.99;47.73;100170.50;4844399;29;7121;-73
2023/07/04 01:47:59;;;;;;;;;;;;;;;18.96;47.81;100178.28;4840000;29;6788;-74
2023/07/04 01:50:25;;;;;;;;;;;;;;;18.95;47.77;100168.75;4844122;29;6796;-74
2023/07/04 01:52:50;;;;;;;;;;;;;;;18.93;47.51;100170.47;4841755;29;6839;-73
2023/07/04 01:55:16;;;;;;;;;;;;;;;18.91;47.87;100160.91;4840461;29;6776;-74
2023/07/04 01:57:42;;;;;;;;;;;;;;;18.88;48.20;100164.34;4841429;29;6776;-73
2023/07/04 02:00:12;;;;;;;;;;;;;;;18.87;47.96;100179.03;4860803;29;6800;-73
2023/07/04 02:02:40;;;;;;;;;;;;;;;18.85;48.64;100170.38;4862888;29;11838;-74
2023/07/04 02:05:07;;;;;;;;;;;;;;;18.83;48.11;100168.59;4836704;29;6842;-73
2023/07/04 02:07:32;;;;;;;;;;;;;;;18.81;48.32;100178.13;4845301;29;7309;-74
2023/07/04 02:09:59;;;;;;;;;;;;;;;18.80;48.45;100173.78;4844075;29;7203;-74
2023/07/04 02:12:25;;;;;;;;;;;;;;;18.79;48.75;100178.13;4854916;29;6940;-73
2023/07/04 02:14:50;;;;;;;;;;;;;;;18.79;48.54;100164.25;4844713;29;6950;-74
2023/07/04 02:17:16;;;;;;;;;;;;;;;18.77;48.81;100168.56;4844027;29;6773;-73
2023/07/04 02:19:42;;;;;;;;;;;;;;;18.73;48.58;100171.13;4834109;29;6926;-73
2023/07/04 02:22:07;;;;;;;;;;;;;;;18.71;48.79;100169.38;4841991;29;6781;-73
2023/07/04 02:24:34;;;;;;;;;;;;;;;18.68;49.09;100172.81;4862757;29;6777;-73
2023/07/04 02:27:00;;;;;;;;;;;;;;;18.65;49.19;100167.59;4864677;29;6797;-73
2023/07/04 02:29:25;;;;;;;;;;;;;;;18.64;49.46;100168.44;4861428;29;6768;-73
2023/07/04 02:31:51;;;;;;;;;;;;;;;18.63;49.13;100174.47;4842621;29;6939;-73
2023/07/04 02:34:16;;;;;;;;;;;;;;;18.61;49.78;100178.78;4844676;29;8054;-74
2023/07/04 02:36:42;;;;;;;;;;;;;;;18.58;49.80;100176.16;4858419;29;6793;-73
2023/07/04 02:39:08;;;;;;;;;;;;;;;18.55;49.84;100165.75;4859091;29;6844;-73
2023/07/04 02:41:34;;;;;;;;;;;;;;;18.53;49.97;100176.09;4840365;29;6827;-73
2023/07/04 02:44:00;;;;;;;;;;;;;;;18.50;49.70;100176.06;4841918;29;6777;-73
2023/07/04 02:46:26;;;;;;;;;;;;;;;18.49;49.85;100173.44;4843944;29;7238;-72
2023/07/04 02:48:52;;;;;;;;;;;;;;;18.46;49.99;100164.78;4827094;29;7211;-72
2023/07/04 02:51:17;;;;;;;;;;;;;;;18.49;50.44;100171.69;4844301;29;6952;-72
2023/07/04 02:53:43;;;;;;;;;;;;;;;18.51;50.36;100172.63;4840916;29;6860;-72
2023/07/04 02:56:11;;;;;;;;;;;;;;;18.55;50.49;100174.38;4844503;29;6784;-72
2023/07/04 02:58:36;;;;;;;;;;;;;;;18.61;51.28;100158.00;4837966;29;6800;-72
2023/07/04 03:01:04;;;;;;;;;;;;;;;18.67;50.57;100162.38;4841761;29;6781;-72
2023/07/04 03:03:31;;;;;;;;;;;;;;;18.69;51.01;100165.91;4840571;29;6877;-72
2023/07/04 03:05:57;;;;;;;;;;;;;;;18.68;50.80;100165.00;4847996;29;7029;-72
2023/07/04 03:08:22;;;;;;;;;;;;;;;18.66;50.63;100160.66;4856250;29;6805;-72
2023/07/04 03:10:49;;;;;;;;;;;;;;;18.64;50.90;100163.25;4859486;29;6784;-72
2023/07/04 03:13:15;;;;;;;;;;;;;;;18.60;50.55;100167.53;4837447;29;6789;-73
2023/07/04 03:15:41;;;;;;;;;;;;;;;18.57;50.77;100164.03;4839119;29;6781;-73
2023/07/04 03:18:08;;;;;;;;;;;;;;;18.54;51.11;100182.13;4840182;29;6776;-72
2023/07/04 03:20:34;;;;;;;;;;;;;;;18.51;51.38;100183.00;4842565;29;6856;-72
2023/07/04 03:22:59;;;;;;;;;;;;;;;18.47;50.80;100170.81;4840028;29;7304;-75
2023/07/04 03:25:25;;;;;;;;;;;;;;;18.46;51.11;100171.69;4842706;29;6769;-75
2023/07/04 03:27:51;;;;;;;;;;;;;;;18.43;51.60;100175.09;4839051;29;7259;-75
2023/07/04 03:30:17;;;;;;;;;;;;;;;18.41;51.75;100176.81;4842346;29;6765;-74
2023/07/04 03:32:43;;;;;;;;;;;;;;;18.40;51.73;100175.06;4839824;29;6809;-72
2023/07/04 03:35:09;;;;;;;;;;;;;;;18.39;51.83;100181.13;4839226;29;6921;-72
2023/07/04 03:37:36;;;;;;;;;;;;;;;18.39;51.52;100180.22;4839754;29;6781;-72
2023/07/04 03:40:07;;;;;;;;;;;;;;;18.40;52.04;100182.84;4861506;29;6828;-72
2023/07/04 03:42:35;;;;;;;;;;;;;;;18.41;51.91;100176.81;4836843;29;7323;-75
2023/07/04 03:45:01;;;;;;;;;;;;;;;18.44;51.80;100181.16;4860707;29;7288;-75
2023/07/04 03:47:27;;;;;;;;;;;;;;;18.50;52.47;100180.38;4825914;29;6964;-75
2023/07/04 03:49:52;;;;;;;;;;;;;;;18.54;51.80;100182.13;4842774;29;6970;-73
2023/07/04 03:52:18;;;;;;;;;;;;;;;18.57;52.32;100182.19;4856147;29;7119;-73
2023/07/04 03:54:43;;;;;;;;;;;;;;;18.60;52.51;100182.22;4859968;29;7986;-72
2023/07/04 03:57:09;;;;;;;;;;;;;;;18.64;52.50;100183.13;4857516;29;6788;-72
2023/07/04 03:59:35;;;;;;;;;;;;;;;18.68;52.37;100183.19;4861741;29;6777;-72
2023/07/04 04:02:01;;;;;;;;;;;;;;;18.70;52.47;100184.06;4863138;29;6873;-72
2023/07/04 04:04:27;;;;;;;;;;;;;;;18.76;51.88;100177.22;4843822;29;6836;-73
2023/07/04 04:06:56;;;;;;;;;;;;;;;18.81;52.23;100185.91;4842003;29;6916;-73
2023/07/04 04:09:23;;;;;;;;;;;;;;;18.88;52.12;100178.22;4841294;29;6816;-73
2023/07/04 04:11:50;;;;;;;;;;;;;;;18.97;51.89;100181.72;4844087;29;6868;-73
2023/07/04 04:14:16;;;;;;;;;;;;;;;19.05;51.51;100187.06;4840752;29;7809;-73
2023/07/04 04:16:41;;;;;;;;;;;;;;;19.11;52.26;100185.38;4840722;29;6800;-73
2023/07/04 04:19:07;;;;;;;;;;;;;;;19.18;52.06;100180.25;4853564;29;6792;-73
2023/07/04 04:21:32;;;;;;;;;;;;;;;19.23;51.76;100187.22;4840756;29;6980;-73
2023/07/04 04:23:58;;;;;;;;;;;;;;;19.27;51.59;100196.78;4840906;29;6797;-73
2023/07/04 04:26:25;;;;;;;;;;;;;;;19.32;51.73;100186.44;4842671;29;7194;-73
2023/07/04 04:28:50;;;;;;;;;;;;;;;19.36;51.25;100188.22;4843895;29;7200;-72
2023/07/04 04:31:17;;;;;;;;;;;;;;;19.43;51.19;100194.31;4836417;29;6776;-73
2023/07/04 04:33:43;;;;;;;;;;;;;;;19.50;51.23;100197.84;4842701;29;6813;-74
2023/07/04 04:36:08;;;;;;;;;;;;;;;19.56;51.33;100201.34;4847145;29;6877;-72
2023/07/04 04:38:37;;;;;;;;;;;;;;;19.63;51.09;100197.06;4839756;29;6777;-72
2023/07/04 04:41:08;;;;;;;;;;;;;;;19.71;51.11;100202.34;4839026;29;6804;-73
2023/07/04 04:43:33;;;;;;;;;;;;;;;19.77;50.67;100198.91;4857011;29;6848;-73
2023/07/04 04:46:03;;;;;;;;;;;;;;;19.83;50.74;100217.13;4841783;29;7639;-73
2023/07/04 04:48:35;;;;;;;;;;;;;;;19.88;50.70;100211.97;4843693;29;6960;-72
2023/07/04 04:51:12;;;;;;;;;;;;;;;19.92;50.59;100214.59;4857209;29;6820;-72
2023/07/04 04:53:40;;;;;;;;;;;;;;;19.96;50.16;100219.00;4836766;29;6977;-72
2023/07/04 04:56:08;;;;;;;;;;;;;;;20.01;50.39;100212.94;4838244;29;8309;-75
2023/07/04 04:58:34;;;;;;;;;;;;;;;20.05;49.87;100218.19;4839783;29;6991;-75
2023/07/04 05:01:25;;;;;;;;;;;;;;;20.07;49.75;100219.06;4837610;29;6952;-73
2023/07/04 05:03:54;;;;;;;;;;;;;;;20.14;50.19;100222.59;4835052;29;6804;-74
2023/07/04 05:06:23;;;;;;;;;;;;;;;20.20;49.83;100211.34;4840799;29;7167;-74
2023/07/04 05:08:50;;;;;;;;;;;;;;;20.25;49.99;100214.81;4847399;29;7148;-75
2023/07/04 05:11:16;;;;;;;;;;;;;;;20.27;49.78;100218.28;4862143;29;6797;-74
2023/07/04 05:13:45;;;;;;;;;;;;;;;20.36;50.49;100214.88;4847393;29;6796;-75
2023/07/04 05:16:18;;;;;;;;;;;;;;;20.51;50.30;100217.53;4857926;29;7276;-74
2023/07/04 05:18:45;;;;;;;;;;;;;;;20.63;49.93;100215.88;4850501;29;7001;-75
2023/07/04 05:21:14;;;;;;;;;;;;;;;20.68;49.60;100219.34;4825139;29;7131;-74
2023/07/04 05:23:43;;;;;;;;;;;;;;;20.71;49.37;100221.94;4842572;29;7316;-73
2023/07/04 05:26:13;;;;;;;;;;;;;;;20.73;49.31;100216.75;4841454;29;6809;-74
2023/07/04 05:28:39;;;;;;;;;;;;;;;20.72;48.91;100226.31;4840690;29;7946;-74
2023/07/04 05:31:14;;;;;;;;;;;;;;;20.74;49.31;100219.38;4844327;29;6792;-73
2023/07/04 05:33:40;;;;;;;;;;;;;;;20.89;49.67;100226.38;4831090;29;7059;-75
2023/07/04 05:36:18;;;;;;;;;;;;;;;21.08;49.37;100224.69;4843381;29;6801;-74
2023/07/04 05:38:48;;;;;;;;;;;;;;;21.31;48.84;100225.59;4845263;29;8086;-73
2023/07/04 05:41:16;;;;;;;;;;;;;;;21.46;48.95;100233.41;4855646;29;6899;-73
2023/07/04 05:43:43;;;;;;;;;;;;;;;21.62;48.84;100229.06;4843757;29;6920;-74
2023/07/04 05:46:11;;;;;;;;;;;;;;;21.76;48.14;100234.31;4836895;29;8494;-74
2023/07/04 05:48:38;;;;;;;;;;;;;;;21.92;48.42;100239.50;4860313;29;7193;-74
2023/07/04 05:51:08;;;;;;;;;;;;;;;22.06;47.92;100245.56;4842650;29;6821;-74
2023/07/04 05:53:37;;;;;;;;;;;;;;;22.12;47.28;100234.25;4849360;29;6808;-75
2023/07/04 05:56:15;;;;;;;;;;;;;;;22.16;47.30;100240.34;4861244;29;7199;-73
2023/07/04 05:58:44;;;;;;;;;;;;;;;22.23;47.10;100249.88;4857039;29;6816;-75
2023/07/04 06:01:16;;;;;;;;;;;;;;;22.32;46.94;100244.66;4841338;29;6800;-75
2023/07/04 06:03:45;;;;;;;;;;;;;;;22.33;46.36;100235.06;4845143;29;6869;-73
2023/07/04 06:06:32;;;;;;;;;;;;;;;22.29;46.08;100244.63;4840961;29;6800;-74
2023/07/04 06:09:02;;;;;;;;;;;;;;;22.30;46.27;100238.53;4846564;29;7213;-74
2023/07/04 06:11:34;;;;;;;;;;;;;;;22.30;46.33;100248.13;4844326;29;7029;-74
2023/07/04 06:14:02;;;;;;;;;;;;;;;22.29;46.22;100244.63;4842743;29;7285;-74
2023/07/04 06:16:28;;;;;;;;;;;;;;;22.28;45.89;100248.13;4827618;29;7253;-73
2023/07/04 06:18:54;;;;;;;;;;;;;;;22.25;46.08;100255.09;4847066;29;8067;-74
2023/07/04 06:21:23;;;;;;;;;;;;;;;22.21;46.50;100262.06;4848271;29;6765;-75
2023/07/04 06:23:50;;;;;;;;;;;;;;;22.21;46.33;100264.66;4866928;29;6962;-74
2023/07/04 06:26:16;;;;;;;;;;;;;;;22.30;46.14;100262.03;4842110;29;7020;-74
2023/07/04 06:28:43;;;;;;;;;;;;;;;22.38;46.31;100258.53;4860305;29;7211;-74
2023/07/04 06:31:17;;;;;;;;;;;;;;;22.45;46.12;100261.16;4843147;29;7059;-73
2023/07/04 06:33:43;;;;;;;;;;;;;;;22.55;45.75;100267.22;4862454;29;6796;-73
2023/07/04 06:36:15;;;;;;;;;;;;;;;22.61;45.52;100268.94;4846560;29;6801;-73
2023/07/04 06:38:42;;;;;;;;;;;;;;;22.59;45.83;100262.84;4844825;29;6982;-74
2023/07/04 06:41:15;;;;;;;;;;;;;;;22.62;45.73;100278.50;4840732;29;6860;-73
2023/07/04 06:43:44;;;;;;;;;;;;;;;22.72;45.46;100274.13;4854913;29;7265;-73
2023/07/04 06:46:17;;;;;;;;;;;;;;;22.76;45.46;100265.38;4847147;29;6789;-74
2023/07/04 06:48:47;;;;;;;;;;;;;;;22.72;45.04;100271.50;4845445;29;8937;-73
2023/07/04 06:51:15;;;;;;;;;;;;;;;22.65;44.93;100275.03;4864364;29;6797;-74
2023/07/04 06:53:41;;;;;;;;;;;;;;;22.59;44.67;100276.75;4843239;29;6789;-75
2023/07/04 06:56:18;;;;;;;;;;;;;;;22.61;45.06;100271.53;4839779;29;6934;-73
2023/07/04 06:58:49;;;;;;;;;;;;;;;22.74;45.62;100274.97;4842233;29;6797;-73
2023/07/04 07:01:15;;;;;;;;;;;;;;;23.00;45.53;100268.75;4841594;29;6805;-73
2023/07/04 07:03:41;;;;;;;;;;;;;;;23.19;44.56;100266.03;4841100;29;6992;-74
2023/07/04 07:06:10;;;;;;;;;;;;;;;23.28;44.39;100266.88;4843936;29;7173;-73
2023/07/04 07:08:37;;;;;;;;;;;;;;;23.40;44.32;100270.28;4847859;29;7061;-73
2023/07/04 07:11:10;;;;;;;;;;;;;;;23.63;44.66;100275.31;4849393;29;7198;-74
2023/07/04 07:13:37;;;;;;;;;;;;;;;23.95;44.83;100268.97;4844644;29;7285;-75
2023/07/04 07:16:10;;;;;;;;;;;;;;;24.32;44.45;100280.81;4844777;29;7132;-75
2023/07/04 07:18:38;;;;;;;;;;;;;;;24.55;42.90;100292.78;4843747;29;6821;-74
2023/07/04 07:21:07;;;;;;;;;;;;;;;24.65;42.05;100286.53;4856268;29;6789;-75
2023/07/04 07:23:35;;;;;;;;;;;;;;;24.83;41.79;100287.25;4827033;29;7950;-74
2023/07/04 07:26:04;;;;;;;;;;;;;;;25.10;42.05;100285.97;4858006;29;6796;-75
2023/07/04 07:28:34;;;;;;;;;;;;;;;25.40;40.74;100282.06;4856915;29;7878;-74
2023/07/04 07:31:16;;;;;;;;;;;;;;;25.55;40.32;100283.63;4841517;29;6852;-74
2023/07/04 07:33:48;;;;;;;;;;;;;;;25.58;39.74;100292.31;4861128;29;6824;-74
2023/07/04 07:36:30;;;;;;;;;;;;;;;25.51;39.39;100280.19;4844059;29;6796;-75
2023/07/04 07:38:57;;;;;;;;;;;;;;;25.49;38.84;100282.81;4855836;29;6812;-74
2023/07/04 07:41:31;;;;;;;;;;;;;;;25.40;38.61;100282.06;4846915;29;7183;-73
2023/07/04 07:43:57;;;;;;;;;;;;;;;25.25;39.16;100278.81;4858408;29;6812;-73
2023/07/04 07:46:22;;;;;;;;;;;;;;;25.19;38.98;100277.13;4843223;29;6796;-74
2023/07/04 07:48:49;;;;;;;;;;;;;;;25.24;39.52;100275.28;4841497;29;6914;-74
2023/07/04 07:51:18;;;;;;;;;;;;;;;25.40;39.70;100282.06;4857827;29;6975;-74
2023/07/04 07:53:46;;;;;;;;;;;;;;;25.68;39.85;100281.66;4841248;29;7320;-74
2023/07/04 07:56:17;;;;;;;;;;;;;;;26.08;39.00;100280.97;4844158;29;7191;-73
2023/07/04 07:58:43;;;;;;;;;;;;;;;26.47;38.21;100264.50;4858052;29;7153;-75
2023/07/04 08:01:23;;;;;;;;;;;;;;;26.67;37.80;100289.50;4836970;29;7003;-73
2023/07/04 08:03:49;;;;;;;;;;;;;;;26.86;37.26;100282.94;4846842;29;6962;-75
2023/07/04 08:06:29;;;;;;;;;;;;;;;27.09;36.78;100268.47;4849331;29;7198;-73
2023/07/04 08:08:57;;;;;;;;;;;;;;;27.33;36.21;100265.28;4846948;29;6868;-75
2023/07/04 08:11:25;;;;;;;;;;;;;;;27.54;35.62;100264.81;4859914;29;6937;-73
2023/07/04 08:13:52;;;;;;;;;;;;;;;27.74;35.83;100258.16;4842618;29;6784;-74
2023/07/04 08:16:44;;;;;;;;;;;;;;;27.99;35.04;100257.50;4844353;29;6805;-73
2023/07/04 08:19:10;;;;;;;;;;;;;;;28.25;33.88;100262.09;4848018;29;7234;-75
2023/07/04 08:21:36;;;;;;;;;;;;;;;28.48;33.18;100259.69;4842871;29;6967;-74
2023/07/04 08:24:03;;;;;;;;;;;;;;;28.63;32.27;100261.91;4846132;29;6785;-75
2023/07/04 08:26:28;;;;;;;;;;;;;;;28.69;31.85;100259.09;4841853;29;7216;-74
2023/07/04 08:28:56;;;;;;;;;;;;;;;28.65;31.56;100262.72;4827244;29;7063;-74
2023/07/04 08:31:23;;;;;;;;;;;;;;;28.60;31.92;100258.47;4851450;29;7249;-73
2023/07/04 08:33:49;;;;;;;;;;;;;;;28.69;31.95;100264.38;4850050;29;6797;-73
2023/07/04 08:36:17;;;;;;;;;;;;;;;28.98;32.37;100263.56;4847895;29;6975;-75
2023/07/04 08:38:47;;;;;;;;;;;;;;;29.24;31.88;100263.56;4845647;29;6829;-73
2023/07/04 08:42:07;;;;;;;;;;;;;;;29.41;30.46;100263.94;4862487;29;6863;-74
2023/07/04 08:44:44;;;;;;;;;;;;;;;29.38;30.51;100273.69;4849624;29;6833;-76
2023/07/04 08:47:25;;;;;;;;;;;;;;;29.42;30.65;100274.44;4832279;29;6984;-74
2023/07/04 08:50:11;;;;;;;;;;;;;;;29.51;30.96;100270.69;4844025;29;7012;-74
2023/07/04 08:52:54;;;;;;;;;;;;;;;29.42;30.81;100282.38;4859103;29;6885;-74
2023/07/04 08:55:20;;;;;;;;;;;;;;;29.47;30.11;100272.56;4862171;29;6991;-75
2023/07/04 08:58:02;;;;;;;;;;;;;;;29.58;30.97;100281.91;4857150;29;6834;-74
2023/07/04 09:00:39;;;;;;;;;;;;;;;29.78;30.36;100273.28;4841567;29;7196;-73
2023/07/04 09:03:36;;;;;;;;;;;;;;;30.07;30.56;100285.53;4848132;29;7096;-71
2023/07/04 09:06:16;;;;;;;;;;;;;;;30.47;29.69;100287.63;4846082;29;6800;-71
2023/07/04 09:09:25;;;;;;;;;;;;;;;30.86;29.40;100288.88;4845898;29;6825;-72
2023/07/04 09:11:52;;;;;;;;;;;;;;;31.25;29.53;100292.66;4860079;29;7310;-70
2023/07/04 09:14:54;;;;;;;;;;;;;;;31.67;29.56;100305.03;4844874;29;6863;-70
2023/07/04 09:17:35;;;;;;;;;;;;;;;32.13;29.26;100311.97;4832216;29;7057;-70
2023/07/04 09:20:05;;;;;;;;;;;;;;;32.46;28.84;100318.53;4848329;29;6865;-73
2023/07/04 09:22:30;;;;;;;;;;;;;;;32.57;27.88;100307.44;4861097;29;7384;-71
2023/07/04 09:24:56;;;;;;;;;;;;;;;32.32;27.57;100304.09;4863949;29;6796;-72
2023/07/04 09:27:22;;;;;;;;;;;;;;;32.13;27.85;100290.78;4828526;29;7101;-71
2023/07/04 09:29:48;;;;;;;;;;;;;;;32.12;27.79;100299.66;4846968;29;6976;-72
2023/07/04 09:32:14;;;;;;;;;;;;;;;32.25;27.46;100306.13;4841826;29;7161;-71
2023/07/04 09:34:50;;;;;;;;;;;;;;;32.39;27.62;100302.03;4845663;29;6781;-71
2023/07/04 09:37:23;;;;;;;;;;;;;;;32.66;27.07;100305.22;4841094;29;6805;-71
2023/07/04 09:39:50;;;;;;;;;;;;;;;32.85;26.53;100299.03;4849644;29;7084;-72
2023/07/04 09:42:19;;;;;;;;;;;;;;;32.65;26.61;100302.66;4843780;29;7020;-72
2023/07/04 09:44:46;;;;;;;;;;;;;;;32.32;26.29;100298.78;4841672;29;6964;-70
2023/07/04 09:47:31;;;;;;;;;;;;;;;32.24;27.21;100292.97;4843681;29;6937;-69
2023/07/04 09:50:15;;;;;;;;;;;;;;;32.13;27.27;100285.47;4842416;29;6856;-68
2023/07/04 09:52:43;;;;;;;;;;;;;;;31.93;26.90;100294.31;4847487;29;6805;-72
2023/07/04 09:55:26;;;;;;;;;;;;;;;31.99;27.07;100286.94;4845863;29;6808;-73
2023/07/04 09:57:51;;;;;;;;;;;;;;;32.05;27.17;100285.81;4840209;29;7552;-70
2023/07/04 10:00:24;;;;;;;;;;;;;;;32.18;27.36;100283.50;4857334;29;6761;-71
2023/07/04 10:03:04;;;;;;;;;;;;;;;32.40;27.23;100285.19;4857146;29;6801;-71
2023/07/04 10:05:35;;;;;;;;;;;;;;;32.78;26.96;100287.00;4845306;29;6954;-69
2023/07/04 10:08:08;;;;;;;;;;;;;;;33.23;26.01;100293.72;4843126;29;7158;-70
2023/07/04 10:10:50;;;;;;;;;;;;;;;33.33;25.38;100296.78;4845458;29;6797;-70
2023/07/04 10:13:38;;;;;;;;;;;;;;;32.87;25.25;100291.03;4845694;29;6969;-68
2023/07/04 10:16:23;;;;;;;;;;;;;;;32.68;25.84;100299.84;4847139;29;6816;-68
2023/07/04 10:18:49;;;;;;;;;;;;;;;32.78;25.67;100289.66;4863354;29;7069;-70
2023/07/04 10:21:15;;;;;;;;;;;;;;;32.97;25.54;100297.66;4842353;29;6801;-70
2023/07/04 10:23:41;;;;;;;;;;;;;;;32.92;25.63;100286.38;4825548;29;6796;-71
2023/07/04 10:26:08;;;;;;;;;;;;;;;32.69;25.56;100301.56;4841622;29;6800;-70
2023/07/04 10:28:35;;;;;;;;;;;;;;;32.77;25.75;100303.84;4843950;29;6789;-72
2023/07/04 10:31:18;;;;;;;;;;;;;;;32.99;25.30;100298.41;4840030;29;7006;-71
2023/07/04 10:33:52;;;;;;;;;;;;;;;33.23;25.09;100292.88;4857195;29;7000;-69
2023/07/04 10:36:27;;;;;;;;;;;;;;;33.35;25.33;100300.22;4859475;29;6816;-70
2023/07/04 10:38:59;;;;;;;;;;;;;;;33.35;25.05;100296.69;4859536;29;6805;-70
2023/07/04 10:42:13;;;;;;;;;;;;;;;33.02;25.25;100311.53;4845185;29;6866;-70
2023/07/04 10:44:43;;;;;;;;;;;;;;;32.49;25.40;100319.25;4847603;29;6920;-69
2023/07/04 10:47:25;;;;;;;;;;;;;;;32.34;25.52;100310.16;4860553;29;6812;-71
2023/07/04 10:50:03;;;;;;;;;;;;;;;32.46;26.09;100316.75;4845115;29;6800;-71
2023/07/04 10:52:35;;;;;;;;;;;;;;;32.39;25.59;100302.03;4845144;29;6809;-69
2023/07/04 10:55:02;;;;;;;;;;;;;;;32.26;26.17;100307.88;4852984;29;6800;-71
2023/07/04 10:57:45;;;;;;;;;;;;;;;32.09;25.96;100311.25;4858319;29;7419;-70
2023/07/04 11:00:36;;;;;;;;;;;;;;;31.99;26.38;100310.81;4857202;29;6877;-70
2023/07/04 11:03:24;;;;;;;;;;;;;;;32.16;26.51;100305.69;4860054;29;6998;-71
2023/07/04 11:05:55;;;;;;;;;;;;;;;32.57;26.69;100302.13;4823295;29;7207;-70
2023/07/04 11:08:27;;;;;;;;;;;;;;;32.88;26.02;100309.50;4839391;29;6951;-71
2023/07/04 11:11:12;;;;;;;;;;;;;;;33.06;26.19;100310.47;4842622;29;6933;-70
2023/07/04 11:14:06;;;;;;;;;;;;;;;33.18;25.65;100305.50;4842437;29;6813;-69
2023/07/04 11:16:42;;;;;;;;;;;;;;;33.36;25.90;100301.94;4848349;29;6899;-70
2023/07/04 11:19:21;;;;;;;;;;;;;;;33.23;25.12;100304.34;4838735;29;6788;-70
2023/07/04 11:22:15;;;;;;;;;;;;;;;32.96;25.39;100296.78;4844536;29;6793;-69
2023/07/04 11:24:53;;;;;;;;;;;;;;;33.20;25.28;100290.34;4847590;29;6817;-70
2023/07/04 11:27:30;;;;;;;;;;;;;;;33.48;24.59;100291.69;4843369;29;6801;-70
2023/07/04 11:30:02;;;;;;;;;;;;;;;33.26;24.59;100298.03;4844785;29;6793;-70
2023/07/04 11:32:37;;;;;;;;;;;;;;;32.82;24.80;100293.91;4842992;29;7152;-71
2023/07/04 11:35:13;;;;;;;;;;;;;;;32.88;25.55;100288.28;4844602;29;7361;-70
2023/07/04 11:38:05;;;;;;;;;;;;;;;33.18;25.43;100289.56;4844118;29;7614;-70
2023/07/04 11:40:54;;;;;;;;;;;;;;;33.23;25.07;100288.41;4838412;29;7165;-72
2023/07/04 11:43:40;;;;;;;;;;;;;;;33.39;25.34;100277.88;4856829;29;7756;-70
2023/07/04 11:46:06;;;;;;;;;;;;;;;33.48;25.22;100275.75;4864574;29;7193;-70
2023/07/04 11:48:34;;;;;;;;;;;;;;;33.66;25.28;100274.81;4856855;29;6982;-70
2023/07/04 11:51:06;;;;;;;;;;;;;;;34.05;24.97;100279.97;4857505;29;6805;-69
2023/07/04 11:53:46;;;;;;;;;;;;;;;34.46;24.68;100278.69;4839483;29;6813;-70
2023/07/04 11:56:18;;;;;;;;;;;;;;;34.58;24.38;100277.19;4848051;29;6796;-71
2023/07/04 11:58:45;;;;;;;;;;;;;;;34.69;24.10;100282.78;4858320;29;7501;-71
2023/07/04 12:01:14;;;;;;;;;;;;;;;34.64;23.56;100276.84;4856149;29;6805;-70
2023/07/04 12:03:57;;;;;;;;;;;;;;;34.27;23.91;100265.50;4857234;29;6785;-71
2023/07/04 12:07:00;;;;;;;;;;;;;;;33.70;23.88;100275.50;4857616;29;6821;-71
2023/07/04 12:09:33;;;;;;;;;;;;;;;33.62;24.60;100272.38;4841209;29;7156;-71
2023/07/04 12:12:04;;;;;;;;;;;;;;;33.68;24.55;100268.56;4848186;29;7134;-71
2023/07/04 12:14:36;;;;;;;;;;;;;;;33.89;23.96;100267.44;4843656;29;6937;-70
2023/07/04 12:17:02;;;;;;;;;;;;;;;33.83;23.85;100265.13;4844985;29;6820;-72
2023/07/04 12:19:28;;;;;;;;;;;;;;;33.88;23.71;100265.72;4841513;29;7052;-70
2023/07/04 12:21:57;;;;;;;;;;;;;;;34.09;23.57;100262.06;4856015;29;6777;-70
2023/07/04 12:24:24;;;;;;;;;;;;;;;34.40;23.46;100266.59;4852837;29;6821;-70
2023/07/04 12:26:57;;;;;;;;;;;;;;;34.79;23.58;100258.31;4856059;29;7272;-72
2023/07/04 12:29:23;;;;;;;;;;;;;;;35.16;22.58;100253.59;4850983;29;6812;-71
2023/07/04 12:32:14;;;;;;;;;;;;;;;35.59;22.29;100252.88;4834993;29;6793;-71
2023/07/04 12:34:40;;;;;;;;;;;;;;;35.93;22.00;100255.31;4824322;29;7052;-70
2023/07/04 12:37:12;;;;;;;;;;;;;;;35.98;21.76;100248.75;4845430;29;6825;-71
2023/07/04 12:39:47;;;;;;;;;;;;;;;35.87;22.31;100251.19;4846459;29;7049;-73
2023/07/04 12:42:30;;;;;;;;;;;;;;;35.62;22.42;100244.69;4848929;29;9792;-73
2023/07/04 12:44:56;;;;;;;;;;;;;;;35.62;22.30;100247.38;4835210;29;6885;-73
2023/07/04 12:47:30;;;;;;;;;;;;;;;35.65;22.67;100251.66;4842410;29;6983;-73
2023/07/04 12:49:58;;;;;;;;;;;;;;;35.57;21.97;100242.31;4832480;29;7386;-73
2023/07/04 12:52:31;;;;;;;;;;;;;;;35.68;22.26;100235.47;4813660;29;6993;-73
2023/07/04 12:55:02;;;;;;;;;;;;;;;35.80;21.85;100237.38;4833361;29;6808;-72
2023/07/04 12:57:29;;;;;;;;;;;;;;;35.90;22.42;100242.16;4832566;29;6801;-73
2023/07/04 13:00:19;;;;;;;;;;;;;;;35.92;21.86;100241.13;4847424;29;6804;-73
2023/07/04 13:02:47;;;;;;;;;;;;;;;35.84;22.09;100235.38;4857495;29;11666;-73
2023/07/04 13:05:16;;;;;;;;;;;;;;;35.80;22.13;100234.72;4868008;29;6868;-73
2023/07/04 13:07:49;;;;;;;;;;;;;;;35.70;21.07;100233.56;4848363;29;6856;-73
2023/07/04 13:10:24;;;;;;;;;;;;;;;35.27;21.60;100232.50;4844336;29;7254;-73